Time;durP1;ratioP1;P1;durP2;ratioP2;P2;SDS_P1;SDS_P2;PMS_P1;PMS_P2;Temp;Humidity;BMP_temperature;BMP_pressure;BME280_temperature;BME280_humidity;BME280_pressure;Samples;Min_cycle;Max_cycle;Signal;HPM_P1;HPM_P2
2023/09/28 00:05:15;;;;;;;1.42;0.88;;;;;;;20.63;50.51;101252.59;16103367;19;131233;-52
2023/09/28 00:10:37;;;;;;;1.30;1.20;;;;;;;20.63;50.38;101276.78;16104117;19;131815;-51
2023/09/28 00:15:59;;;;;;;2.47;1.02;;;;;;;20.62;50.47;101277.88;16100954;19;130640;-49
2023/09/28 00:21:21;;;;;;;1.75;1.00;;;;;;;20.60;50.60;101284.53;16111069;19;129589;-50
2023/09/28 00:26:43;;;;;;;1.20;0.95;;;;;;;20.60;50.53;101280.91;16112636;19;130573;-49
2023/09/28 00:32:06;;;;;;;0.95;0.80;;;;;;;20.59;50.59;101288.38;16110745;19;129245;-52
2023/09/28 00:37:28;;;;;;;2.67;0.90;;;;;;;20.60;50.24;101287.28;16112338;19;130923;-49
2023/09/28 00:42:51;;;;;;;1.45;0.90;;;;;;;20.59;50.66;101290.34;16109354;19;129624;-47
2023/09/28 00:48:13;;;;;;;3.92;0.93;;;;;;;20.59;50.45;101296.72;16115590;19;132223;-50
2023/09/28 00:53:35;;;;;;;1.38;0.90;;;;;;;20.58;50.59;101295.03;16111258;19;129678;-47
2023/09/28 00:58:59;;;;;;;1.45;0.95;;;;;;;20.57;50.68;101304.47;16110014;19;131097;-50
2023/09/28 01:04:22;;;;;;;1.27;0.80;;;;;;;20.56;50.46;101301.94;16112763;19;129553;-48
2023/09/28 01:09:44;;;;;;;1.25;0.90;;;;;;;20.56;50.65;101302.78;16113992;19;130507;-48
2023/09/28 01:15:10;;;;;;;1.60;1.10;;;;;;;20.56;50.57;101315.84;16109108;19;129891;-49
2023/09/28 01:20:37;;;;;;;1.77;1.00;;;;;;;20.54;50.42;101307.78;16113096;19;133911;-49
2023/09/28 01:25:59;;;;;;;2.15;0.93;;;;;;;20.55;50.62;101322.50;16112670;19;131135;-50
2023/09/28 01:31:21;;;;;;;1.40;1.05;;;;;;;20.53;50.21;101319.97;16109021;19;130551;-49
2023/09/28 01:36:43;;;;;;;1.48;0.80;;;;;;;20.53;50.21;101314.41;16107477;19;131474;-50
2023/09/28 01:42:06;;;;;;;2.13;1.00;;;;;;;20.53;50.22;101331.09;16118704;19;131296;-53
2023/09/28 01:47:28;;;;;;;0.75;0.75;;;;;;;20.53;50.62;101336.66;16120833;19;130324;-52
2023/09/28 01:52:50;;;;;;;1.50;1.00;;;;;;;20.52;50.41;101337.75;16121419;19;129680;-46
2023/09/28 01:58:12;;;;;;;1.30;1.00;;;;;;;20.52;50.38;101340.53;16124823;19;135364;-49
2023/09/28 02:03:34;;;;;;;1.63;0.88;;;;;;;20.52;50.23;101353.56;16118989;19;131152;-48
2023/09/28 02:08:56;;;;;;;1.10;0.70;;;;;;;20.51;50.26;101351.88;16122998;19;130151;-49
2023/09/28 02:14:19;;;;;;;2.40;0.80;;;;;;;20.52;50.11;101361.91;16125557;19;130379;-51
2023/09/28 02:19:41;;;;;;;0.95;0.70;;;;;;;20.51;50.36;101363.00;16117040;19;130755;-50
2023/09/28 02:25:07;;;;;;;1.05;0.75;;;;;;;20.50;50.39;101353.81;16122819;19;131044;-52
2023/09/28 02:30:28;;;;;;;1.10;0.82;;;;;;;20.50;50.55;101359.38;16122091;19;129725;-51
2023/09/28 02:35:50;;;;;;;1.48;0.80;;;;;;;20.50;50.27;101364.09;16111284;19;130744;-51
2023/09/28 02:41:20;;;;;;;1.50;1.00;;;;;;;20.50;50.25;101367.72;16114847;19;134446;-53
2023/09/28 02:46:42;;;;;;;1.45;0.80;;;;;;;20.49;50.10;101366.03;16114249;19;129587;-52
2023/09/28 02:52:06;;;;;;;0.98;0.90;;;;;;;20.48;50.26;101371.84;16113766;19;130766;-53
2023/09/28 02:57:28;;;;;;;1.30;0.90;;;;;;;20.47;50.35;101368.22;16118032;19;130991;-53
2023/09/28 03:02:56;;;;;;;1.25;0.80;;;;;;;20.48;50.35;101383.78;16117462;19;129594;-50
2023/09/28 03:08:19;;;;;;;0.80;0.70;;;;;;;20.48;50.14;101394.09;16115355;19;130954;-51
2023/09/28 03:13:41;;;;;;;0.90;0.80;;;;;;;20.46;50.51;101405.44;16112134;19;132038;-54
2023/09/28 03:19:03;;;;;;;1.10;0.75;;;;;;;20.45;50.19;101410.16;16111139;19;130996;-50
2023/09/28 03:24:25;;;;;;;1.27;0.80;;;;;;;20.46;50.26;101419.31;16111835;19;129583;-49
2023/09/28 03:29:47;;;;;;;0.60;0.60;;;;;;;20.45;50.55;101410.16;16112758;19;134099;-53
2023/09/28 03:35:10;;;;;;;0.68;0.65;;;;;;;20.45;50.58;101417.63;15959969;19;2990765;-51
2023/09/28 03:40:35;;;;;;;1.33;0.82;;;;;;;20.43;50.36;101408.72;16120312;19;133758;-52
2023/09/28 03:45:57;;;;;;;1.03;0.90;;;;;;;20.42;50.32;101413.41;16118997;19;129787;-52
2023/09/28 03:51:19;;;;;;;0.70;0.68;;;;;;;20.43;50.59;101411.50;16117338;19;130563;-51
2023/09/28 03:56:41;;;;;;;0.65;0.65;;;;;;;20.43;50.21;101408.72;16116815;19;129050;-54
2023/09/28 04:02:04;;;;;;;1.23;0.82;;;;;;;20.42;50.61;101418.97;16115198;19;131237;-53
2023/09/28 04:07:26;;;;;;;0.88;0.70;;;;;;;20.42;50.31;101432.03;16115044;19;129665;-50
2023/09/28 04:12:47;;;;;;;1.33;0.80;;;;;;;20.43;50.30;101447.63;16115642;19;130619;-51
2023/09/28 04:18:09;;;;;;;1.27;0.70;;;;;;;20.41;50.31;101449.81;16114321;19;130181;-54
2023/09/28 04:23:32;;;;;;;0.85;0.70;;;;;;;20.40;50.57;101465.63;16114438;19;129289;-56
2023/09/28 04:28:54;;;;;;;1.00;0.77;;;;;;;20.40;50.22;101467.56;16118634;19;129786;-53
2023/09/28 04:34:16;;;;;;;1.20;0.77;;;;;;;20.41;50.52;101458.16;16112290;19;130048;-53
2023/09/28 04:39:38;;;;;;;0.90;0.70;;;;;;;20.40;50.36;101453.66;16111463;19;130898;-52
2023/09/28 04:45:00;;;;;;;0.60;0.60;;;;;;;20.40;50.09;101470.34;16116025;19;130684;-53
2023/09/28 04:50:22;;;;;;;0.68;0.60;;;;;;;20.40;50.47;101492.59;16111686;19;129626;-55
2023/09/28 04:55:44;;;;;;;0.95;0.65;;;;;;;20.40;50.04;101475.91;16111933;19;130213;-56
2023/09/28 05:01:06;;;;;;;1.10;0.80;;;;;;;20.39;50.03;101502.84;16113321;19;129640;-49
2023/09/28 05:06:28;;;;;;;1.83;0.60;;;;;;;20.40;50.37;101520.38;16109921;19;130602;-50
2023/09/28 05:11:50;;;;;;;1.00;0.70;;;;;;;20.39;50.38;101522.28;16115021;19;129649;-47
2023/09/28 05:17:14;;;;;;;1.08;0.68;;;;;;;20.37;50.48;101513.34;16110974;19;131281;-50
2023/09/28 05:22:37;;;;;;;1.15;0.65;;;;;;;20.37;50.39;101502.22;16107094;19;129622;-55
2023/09/28 05:28:00;;;;;;;2.00;0.80;;;;;;;20.37;50.63;101516.13;16106188;19;129333;-49
2023/09/28 05:33:22;;;;;;;5.75;0.70;;;;;;;20.38;50.10;101522.53;16107358;19;132948;-53
2023/09/28 05:38:44;;;;;;;0.88;0.63;;;;;;;20.38;50.45;101536.44;16110659;19;129775;-49
2023/09/28 05:44:07;;;;;;;0.93;0.60;;;;;;;20.36;50.24;101525.56;16111458;19;130674;-49
2023/09/28 05:49:33;;;;;;;0.70;0.55;;;;;;;20.36;50.28;101538.59;16107049;19;130902;-57
2023/09/28 05:54:55;;;;;;;0.70;0.68;;;;;;;20.36;50.33;101553.38;16108654;19;131452;-55
2023/09/28 06:00:17;;;;;;;1.35;0.60;;;;;;;20.36;50.25;101560.84;16108564;19;130576;-56
2023/09/28 06:05:40;;;;;;;2.35;0.80;;;;;;;20.37;50.14;101568.91;16111255;19;129308;-56
2023/09/28 06:11:02;;;;;;;1.73;0.80;;;;;;;20.38;50.56;101578.13;16113086;19;130482;-56
2023/09/28 06:16:36;;;;;;;4.82;0.93;;;;;;;20.40;50.74;101578.72;16110580;19;130633;-55
2023/09/28 06:21:59;;;;;;;5.40;1.23;;;;;;;20.45;50.46;101581.59;16112166;19;129330;-58
2023/09/28 06:27:21;;;;;;;6.07;1.63;;;;;;;20.49;50.62;101582.00;16120584;19;129752;-53
2023/09/28 06:32:43;;;;;;;5.43;1.00;;;;;;;20.52;50.58;101596.25;16132952;19;131357;-53
2023/09/28 06:38:05;;;;;;;6.07;1.48;;;;;;;20.55;50.59;101609.66;16128519;19;130338;-51
2023/09/28 06:43:27;;;;;;;2.80;1.15;;;;;;;20.59;50.54;101624.75;16132000;19;134203;-52
2023/09/28 06:48:52;;;;;;;3.85;1.25;;;;;;;20.64;50.50;101620.41;16128707;19;129055;-51
2023/09/28 06:54:16;;;;;;;4.32;1.40;;;;;;;20.67;50.69;101620.75;16128396;19;131446;-54
2023/09/28 06:59:38;;;;;;;5.80;1.52;;;;;;;20.70;50.76;101611.94;16119749;19;129674;-52
2023/09/28 07:05:01;;;;;;;7.53;1.33;;;;;;;20.72;50.46;101618.09;16122548;19;130414;-56
2023/09/28 07:10:23;;;;;;;5.93;1.40;;;;;;;20.75;50.22;101619.53;16119033;19;131314;-55
2023/09/28 07:15:45;;;;;;;5.85;1.52;;;;;;;20.79;50.12;101629.13;16119085;19;131067;-54
2023/09/28 07:21:07;;;;;;;5.30;1.60;;;;;;;20.83;50.30;101640.59;16122472;19;129303;-54
2023/09/28 07:26:29;;;;;;;4.88;1.25;;;;;;;20.86;50.29;101646.50;16117573;19;129976;-53
2023/09/28 07:31:51;;;;;;;7.63;1.40;;;;;;;20.89;49.94;101662.72;16118355;19;131008;-56
2023/09/28 07:37:14;;;;;;;6.18;1.50;;;;;;;20.94;49.99;101664.78;16115265;19;130170;-53
2023/09/28 07:42:40;;;;;;;4.82;1.30;;;;;;;20.99;49.79;101670.44;16116880;19;132994;-54
2023/09/28 07:48:02;;;;;;;6.83;1.50;;;;;;;21.00;49.76;101668.50;16119065;19;130313;-55
2023/09/28 07:53:24;;;;;;;5.93;1.60;;;;;;;21.07;49.43;101663.63;16115071;19;129609;-54
2023/09/28 07:58:47;;;;;;;8.52;1.90;;;;;;;21.11;49.05;101670.41;16113778;19;131385;-54
2023/09/28 08:04:09;;;;;;;7.57;1.77;;;;;;;21.22;48.92;101669.53;16117360;19;130000;-54
2023/09/28 08:09:32;;;;;;;6.70;1.70;;;;;;;21.59;48.51;101665.59;16115907;19;131608;-53
2023/09/28 08:14:54;;;;;;;10.23;1.88;;;;;;;22.51;46.40;101670.25;16116862;19;129831;-55
2023/09/28 08:20:17;;;;;;;9.27;2.15;;;;;;;23.31;44.95;101673.63;16117526;19;130300;-55
2023/09/28 08:25:40;;;;;;;7.35;1.92;;;;;;;23.46;44.56;101681.34;16113248;19;129900;-51
2023/09/28 08:31:05;;;;;;;8.13;1.88;;;;;;;22.97;45.40;101689.63;16109374;19;131234;-57
2023/09/28 08:36:27;;;;;;;11.27;2.35;;;;;;;22.58;45.86;101698.81;16108937;19;129889;-53
2023/09/28 08:41:55;;;;;;;9.63;2.33;;;;;;;22.34;46.17;101704.56;16116303;19;131042;-54
2023/09/28 08:47:17;;;;;;;8.25;2.28;;;;;;;22.15;46.68;101686.38;16118272;19;129888;-53
2023/09/28 08:52:40;;;;;;;12.75;2.50;;;;;;;22.03;46.69;101692.84;16111581;19;130163;-53
2023/09/28 08:58:02;;;;;;;6.63;1.77;;;;;;;21.94;47.40;101705.50;16110846;19;130060;-51
2023/09/28 09:03:26;;;;;;;13.77;2.45;;;;;;;21.88;47.61;101709.28;16113864;19;130800;-51
2023/09/28 09:08:49;;;;;;;7.85;2.60;;;;;;;21.78;47.51;101724.72;16113174;19;131732;-49
2023/09/28 09:14:11;;;;;;;12.05;2.50;;;;;;;21.68;48.03;101718.91;16115860;19;129522;-53
2023/09/28 09:19:34;;;;;;;12.00;2.95;;;;;;;21.63;48.13;101708.53;16111300;19;131099;-51
2023/09/28 09:25:00;;;;;;;11.35;2.83;;;;;;;21.60;48.08;101705.41;16111005;19;129623;-53
2023/09/28 09:30:25;;;;;;;15.02;3.33;;;;;;;21.56;47.91;101718.97;16116473;19;130536;-50
2023/09/28 09:35:47;;;;;;;13.80;2.83;;;;;;;21.52;47.78;101727.00;16111342;19;130370;-54
2023/09/28 09:41:10;;;;;;;14.18;3.10;;;;;;;21.52;47.95;101715.00;16115752;19;130223;-54
2023/09/28 09:46:33;;;;;;;15.75;2.95;;;;;;;21.51;47.45;101702.16;16107928;19;131116;-54
2023/09/28 09:51:59;;;;;;;16.75;3.72;;;;;;;21.51;47.31;101691.03;16108957;19;131667;-51
2023/09/28 09:57:23;;;;;;;17.67;3.22;;;;;;;21.52;47.04;101698.28;16107229;19;130598;-54
2023/09/28 10:02:49;;;;;;;17.20;3.83;;;;;;;21.52;46.82;101710.28;16114631;19;129351;-53
2023/09/28 10:08:12;;;;;;;14.68;3.78;;;;;;;21.51;46.83;101713.28;16127252;19;130658;-53
2023/09/28 10:13:35;;;;;;;14.38;2.78;;;;;;;21.50;47.01;101709.69;16122552;19;130482;-53
2023/09/28 10:18:58;;;;;;;14.90;3.13;;;;;;;21.51;47.05;101708.59;16124072;19;130506;-53
2023/09/28 10:24:29;;;;;;;12.82;3.35;;;;;;;21.51;46.45;101704.94;16123240;19;130273;-53
2023/09/28 10:30:21;;;;;;;12.40;2.97;;;;;;;21.49;46.40;101707.13;16125142;19;130503;-52
2023/09/28 10:35:44;;;;;;;13.25;3.03;;;;;;;21.48;46.90;101706.25;16116958;19;129418;-53
2023/09/28 10:41:07;;;;;;;16.35;3.25;;;;;;;21.47;46.90;101710.13;16124766;19;131238;-54
2023/09/28 10:46:29;;;;;;;17.92;3.78;;;;;;;21.45;46.72;101720.66;16116150;19;130212;-50
2023/09/28 10:51:52;;;;;;;16.80;3.45;;;;;;;21.44;46.72;101710.63;16118168;19;129689;-50
2023/09/28 10:57:14;;;;;;;16.40;2.67;;;;;;;21.42;46.42;101721.16;16121700;19;129728;-51
2023/09/28 11:02:37;;;;;;;14.27;2.95;;;;;;;21.42;46.82;101720.31;16102043;19;129977;-52
2023/09/28 11:08:04;;;;;;;17.00;4.00;;;;;;;21.42;46.26;101729.50;16121224;19;130860;-51
2023/09/28 11:13:26;;;;;;;21.58;3.78;;;;;;;21.42;46.58;101711.97;16119475;19;130701;-48
2023/09/28 11:18:49;;;;;;;19.17;3.05;;;;;;;21.40;46.44;101712.22;16120266;19;131407;-54
2023/09/28 11:24:14;;;;;;;31.35;3.97;;;;;;;21.39;45.99;101713.31;16120346;19;130396;-52
2023/09/28 11:29:39;;;;;;;24.15;3.70;;;;;;;21.40;46.13;101706.66;16118316;19;130266;-52
2023/09/28 11:35:04;;;;;;;31.77;4.70;;;;;;;21.41;45.85;101707.50;16115966;19;131438;-53
2023/09/28 11:40:28;;;;;;;15.43;3.08;;;;;;;21.42;46.16;101710.00;16116565;19;129911;-51
2023/09/28 11:45:51;;;;;;;21.73;3.53;;;;;;;21.42;46.04;101692.47;16117901;19;129265;-49
2023/09/28 11:51:15;;;;;;;21.13;3.72;;;;;;;21.43;46.03;101689.44;16117822;19;130096;-51
2023/09/28 11:56:39;;;;;;;16.73;2.87;;;;;;;21.42;45.89;101682.19;16112346;19;131609;-53
2023/09/28 12:02:02;;;;;;;17.43;2.73;;;;;;;21.43;46.06;101677.47;16116125;19;129504;-52
2023/09/28 12:07:25;;;;;;;17.35;3.28;;;;;;;21.42;46.44;101678.56;16113846;19;129601;-54
2023/09/28 12:12:47;;;;;;;16.15;3.22;;;;;;;21.43;46.36;101669.94;16114795;19;131453;-54
2023/09/28 12:18:09;;;;;;;14.65;2.83;;;;;;;21.45;46.45;101676.13;16115524;19;131117;-49
2023/09/28 12:23:32;;;;;;;14.85;3.30;;;;;;;21.44;46.31;101663.28;16115651;19;131542;-51
2023/09/28 12:28:54;;;;;;;15.75;2.72;;;;;;;21.46;46.51;101660.28;16112865;19;130483;-51
2023/09/28 12:34:16;;;;;;;14.43;2.60;;;;;;;21.45;46.23;101659.41;16114929;19;129853;-51
2023/09/28 12:39:38;;;;;;;12.15;2.58;;;;;;;21.45;46.43;101666.94;16111308;19;129875;-52
2023/09/28 12:45:01;;;;;;;21.15;3.05;;;;;;;21.47;46.14;101668.38;16114049;19;129988;-51
2023/09/28 12:50:23;;;;;;;16.35;3.30;;;;;;;21.47;46.52;101668.38;16114351;19;129688;-49
2023/09/28 12:55:45;;;;;;;15.25;2.60;;;;;;;21.48;46.21;101667.28;16112284;19;130603;-51
2023/09/28 13:01:09;;;;;;;14.45;2.58;;;;;;;21.49;46.24;101657.00;16108622;19;134605;-49
2023/09/28 13:06:32;;;;;;;11.32;2.70;;;;;;;21.49;46.20;101651.44;16106632;19;131604;-48
2023/09/28 13:11:54;;;;;;;15.52;2.90;;;;;;;21.49;46.19;101630.03;16110377;19;130888;-48
2023/09/28 13:17:18;;;;;;;11.60;2.75;;;;;;;21.48;46.27;101633.88;16106625;19;130010;-51
2023/09/28 13:22:40;;;;;;;12.38;2.90;;;;;;;21.48;45.98;101642.22;16105867;19;131444;-50
2023/09/28 13:28:03;;;;;;;14.43;2.90;;;;;;;21.50;46.28;101628.94;16109303;19;132590;-53
2023/09/28 13:33:25;;;;;;;15.07;3.00;;;;;;;21.51;46.17;101640.91;16106766;19;129387;-50
2023/09/28 13:38:49;;;;;;;14.50;2.78;;;;;;;21.51;46.21;101644.56;16118637;19;130118;-50
2023/09/28 13:44:11;;;;;;;15.80;2.80;;;;;;;21.51;45.95;101641.78;16122687;19;130452;-52
2023/09/28 13:49:33;;;;;;;13.05;2.90;;;;;;;21.50;46.26;101628.94;16122347;19;129690;-48
2023/09/28 13:54:55;;;;;;;13.15;2.80;;;;;;;21.50;46.29;101631.72;16123423;19;130424;-51
2023/09/28 14:00:34;;;;;;;18.45;3.15;;;;;;;21.51;46.03;101618.63;16123880;19;130446;-50
2023/09/28 14:05:57;;;;;;;13.93;2.63;;;;;;;21.51;46.06;101625.06;16123031;19;130828;-49
2023/09/28 14:11:21;;;;;;;18.58;3.15;;;;;;;21.50;46.10;101623.38;16118787;19;129738;-50
2023/09/28 14:16:43;;;;;;;11.40;3.07;;;;;;;21.49;46.18;101627.25;16119421;19;131374;-49
2023/09/28 14:22:05;;;;;;;12.38;3.20;;;;;;;21.49;45.89;101627.25;16123947;19;130426;-52
2023/09/28 14:27:29;;;;;;;13.45;3.60;;;;;;;21.49;46.19;101621.69;16122995;19;130795;-52
2023/09/28 14:32:51;;;;;;;14.35;3.30;;;;;;;21.49;46.14;101610.53;16117809;19;130823;-48
2023/09/28 14:38:13;;;;;;;9.95;2.70;;;;;;;21.51;46.30;101624.19;16121812;19;131059;-51
2023/09/28 14:43:36;;;;;;;10.05;2.20;;;;;;;21.51;46.09;101613.94;16120902;19;131285;-49
2023/09/28 14:48:59;;;;;;;9.35;2.85;;;;;;;21.52;46.20;101598.91;16117812;19;131204;-50
2023/09/28 14:54:21;;;;;;;10.02;2.78;;;;;;;21.54;45.97;101583.91;16120957;19;130279;-53
2023/09/28 14:59:43;;;;;;;8.82;2.92;;;;;;;21.55;45.97;101577.22;16110358;19;129631;-49
2023/09/28 15:05:06;;;;;;;11.50;2.75;;;;;;;21.55;45.77;101563.28;16115989;19;130318;-49
2023/09/28 15:10:29;;;;;;;10.55;2.65;;;;;;;21.56;46.13;101534.38;16116697;19;130626;-51
2023/09/28 15:15:51;;;;;;;12.57;2.97;;;;;;;21.59;46.05;101545.00;16122318;19;130785;-49
2023/09/28 15:21:15;;;;;;;13.57;2.53;;;;;;;21.59;46.08;101543.06;16115250;19;130574;-53
2023/09/28 15:26:37;;;;;;;10.45;2.40;;;;;;;21.62;46.05;101541.72;16115128;19;130419;-53
2023/09/28 15:31:59;;;;;;;10.82;2.75;;;;;;;21.61;45.96;101534.47;16113919;19;130154;-51
2023/09/28 15:37:21;;;;;;;9.30;2.92;;;;;;;21.63;46.55;101555.38;16113750;19;130029;-51
2023/09/28 15:42:43;;;;;;;14.40;3.25;;;;;;;21.65;46.58;101563.50;16118680;19;129363;-53
2023/09/28 15:48:06;;;;;;;17.15;3.05;;;;;;;21.64;46.83;101559.03;16112294;19;130252;-47
2023/09/28 15:53:28;;;;;;;12.73;3.05;;;;;;;21.62;47.14;101553.69;16110609;19;131364;-51
2023/09/28 15:58:50;;;;;;;13.27;3.17;;;;;;;21.60;47.25;101544.75;16103812;19;133209;-46
2023/09/28 16:04:12;;;;;;;12.13;2.75;;;;;;;21.57;47.18;101536.91;16110788;19;134977;-52
2023/09/28 16:09:34;;;;;;;18.00;2.92;;;;;;;21.56;47.27;101523.22;16110514;19;130096;-51
2023/09/28 16:14:57;;;;;;;13.88;3.08;;;;;;;21.54;47.29;101542.97;16110669;19;129622;-54
2023/09/28 16:20:19;;;;;;;12.25;2.80;;;;;;;21.52;47.33;101545.16;16112767;19;129739;-52
2023/09/28 16:25:42;;;;;;;10.90;2.80;;;;;;;21.50;47.47;101534.28;16112537;19;129727;-51
2023/09/28 16:31:04;;;;;;;15.05;3.15;;;;;;;21.50;47.36;101539.84;16109967;19;130352;-49
2023/09/28 16:36:26;;;;;;;9.95;2.47;;;;;;;21.50;47.39;101553.78;16107061;19;129360;-50
2023/09/28 16:41:48;;;;;;;11.20;2.22;;;;;;;21.49;47.57;101548.44;16113061;19;130348;-51
2023/09/28 16:47:10;;;;;;;11.80;2.95;;;;;;;21.49;47.32;101552.09;16109629;19;129707;-48
2023/09/28 16:52:32;;;;;;;10.13;2.80;;;;;;;21.47;47.54;101557.03;16110850;19;130022;-50
2023/09/28 16:57:54;;;;;;;9.38;2.60;;;;;;;21.47;47.47;101550.63;16108209;19;130122;-52
2023/09/28 17:03:17;;;;;;;16.80;2.60;;;;;;;21.46;47.41;101566.47;16101436;19;130865;-47
2023/09/28 17:08:41;;;;;;;12.15;2.65;;;;;;;21.44;47.29;101568.66;16105629;19;130552;-50
2023/09/28 17:14:03;;;;;;;15.73;2.35;;;;;;;21.42;47.25;101559.69;16111520;19;129854;-52
2023/09/28 17:19:25;;;;;;;19.98;3.00;;;;;;;21.40;47.65;101563.84;16110994;19;129577;-52
2023/09/28 17:24:48;;;;;;;21.80;2.67;;;;;;;21.38;47.44;101547.41;16112675;19;133452;-49
2023/09/28 17:30:12;;;;;;;12.05;2.65;;;;;;;21.35;47.38;101556.25;16107052;19;129883;-49
2023/09/28 17:35:34;;;;;;;12.23;2.42;;;;;;;21.32;47.66;101563.16;16100206;19;130312;-53
2023/09/28 17:41:00;;;;;;;6.82;2.10;;;;;;;21.32;47.78;101559.50;16004409;19;135777;-54
2023/09/28 17:46:22;;;;;;;12.68;2.67;;;;;;;21.31;47.37;101568.94;16106319;19;130622;-49
2023/09/28 17:51:45;;;;;;;12.15;2.60;;;;;;;21.32;47.78;101579.00;16107557;19;129756;-50
2023/09/28 17:57:08;;;;;;;17.00;2.50;;;;;;;21.32;48.41;101576.22;16105541;19;131816;-53
2023/09/28 18:02:30;;;;;;;11.98;2.17;;;;;;;21.34;48.25;101580.47;16102830;19;130833;-52
2023/09/28 18:07:53;;;;;;;13.55;2.58;;;;;;;21.34;48.24;101583.25;16110032;19;133539;-52
2023/09/28 18:13:15;;;;;;;18.83;2.75;;;;;;;21.36;48.44;101589.38;16109444;19;129820;-47
2023/09/28 18:18:37;;;;;;;9.95;2.22;;;;;;;21.37;48.28;101585.50;16107873;19;129759;-50
2023/09/28 18:23:59;;;;;;;12.07;2.33;;;;;;;21.38;48.32;101580.78;16110432;19;129646;-53
2023/09/28 18:29:21;;;;;;;12.38;2.30;;;;;;;21.40;48.59;101586.09;16127328;19;130777;-50
2023/09/28 18:34:43;;;;;;;10.45;1.80;;;;;;;21.40;48.46;101573.06;16121282;19;131115;-51
2023/09/28 18:40:08;;;;;;;8.90;2.40;;;;;;;21.43;48.74;101560.56;16120706;19;129512;-51
2023/09/28 18:45:30;;;;;;;14.52;2.85;;;;;;;21.45;48.42;101570.34;16119828;19;129749;-53
2023/09/28 18:50:52;;;;;;;10.60;2.55;;;;;;;21.47;48.42;101572.91;16123182;19;129638;-50
2023/09/28 18:56:14;;;;;;;12.45;3.15;;;;;;;21.47;48.47;101570.94;16116024;19;131016;-48
2023/09/28 19:01:36;;;;;;;19.60;2.95;;;;;;;21.48;48.43;101567.06;16113485;19;129606;-52
2023/09/28 19:06:58;;;;;;;25.20;3.05;;;;;;;21.48;48.71;101561.50;16120579;19;131516;-53
2023/09/28 19:12:20;;;;;;;15.80;2.40;;;;;;;21.49;48.92;101567.94;16117434;19;130380;-52
2023/09/28 19:17:42;;;;;;;13.63;2.40;;;;;;;21.50;48.91;101573.25;16120919;19;129987;-54
2023/09/28 19:23:05;;;;;;;12.90;3.03;;;;;;;21.52;49.22;101570.22;16117706;19;129954;-55
2023/09/28 19:28:27;;;;;;;14.40;2.63;;;;;;;21.51;49.21;101562.97;16121934;19;130079;-59
2023/09/28 19:33:50;;;;;;;10.15;2.55;;;;;;;21.51;48.99;101561.03;16116574;19;131497;-56
2023/09/28 19:39:12;;;;;;;13.25;2.33;;;;;;;21.51;49.47;101541.56;16121796;19;129626;-57
2023/09/28 19:44:36;;;;;;;12.35;2.35;;;;;;;21.51;49.07;101538.75;16115297;19;130956;-57
2023/09/28 19:50:01;;;;;;;11.03;2.13;;;;;;;21.53;49.19;101544.06;16111111;19;130783;-58
2023/09/28 19:55:23;;;;;;;10.35;2.63;;;;;;;21.52;49.12;101556.28;16110256;19;130355;-53
2023/09/28 20:00:45;;;;;;;8.27;2.00;;;;;;;21.52;49.46;101564.66;16106852;19;129921;-56
2023/09/28 20:06:07;;;;;;;10.32;2.10;;;;;;;21.51;49.61;101544.34;16113814;19;130901;-56
2023/09/28 20:11:29;;;;;;;10.57;2.38;;;;;;;21.50;49.51;101539.84;16098957;19;130089;-57
2023/09/28 20:16:51;;;;;;;7.60;2.30;;;;;;;21.50;49.28;101534.28;16112806;19;132373;-48
2023/09/28 20:22:13;;;;;;;10.82;2.90;;;;;;;21.51;49.48;101529.56;16115425;19;131200;-58
2023/09/28 20:27:36;;;;;;;8.00;2.17;;;;;;;21.51;49.29;101533.19;16117438;19;129999;-56
2023/09/28 20:32:58;;;;;;;8.35;2.28;;;;;;;21.52;49.27;101525.69;16117182;19;130720;-50
2023/09/28 20:38:20;;;;;;;10.88;2.25;;;;;;;21.53;49.55;101519.00;16110813;19;131212;-50
2023/09/28 20:43:42;;;;;;;9.13;1.90;;;;;;;21.54;49.77;101528.22;16111220;19;130236;-50
2023/09/28 20:49:04;;;;;;;8.23;1.70;;;;;;;21.52;49.61;101515.41;16107048;19;130524;-53
2023/09/28 20:54:26;;;;;;;5.47;1.83;;;;;;;21.53;49.55;101510.66;16114774;19;129039;-55
2023/09/28 20:59:48;;;;;;;9.82;2.28;;;;;;;21.54;49.49;101505.97;16114509;19;130474;-59
2023/09/28 21:05:11;;;;;;;10.43;1.95;;;;;;;21.54;49.70;101500.38;16114200;19;129825;-59
2023/09/28 21:10:36;;;;;;;9.10;1.80;;;;;;;21.53;49.46;101499.53;16108175;19;131511;-56
2023/09/28 21:15:58;;;;;;;6.65;1.88;;;;;;;21.51;49.48;101508.13;16110226;19;130040;-53
2023/09/28 21:21:20;;;;;;;5.75;2.00;;;;;;;21.49;49.49;101506.69;16114376;19;129269;-50
2023/09/28 21:26:44;;;;;;;7.07;1.67;;;;;;;21.47;49.63;101506.91;16111349;19;130868;-53
2023/09/28 21:32:06;;;;;;;8.65;2.03;;;;;;;21.44;49.37;101507.41;16110466;19;130380;-55
2023/09/28 21:37:28;;;;;;;5.18;1.75;;;;;;;21.42;49.13;101519.91;16109280;19;130679;-52
2023/09/28 21:42:50;;;;;;;9.07;1.67;;;;;;;21.40;49.40;101516.53;16113290;19;130886;-52
2023/09/28 21:48:12;;;;;;;9.63;2.03;;;;;;;21.37;49.43;101512.31;16107807;19;129316;-59
2023/09/28 21:53:34;;;;;;;8.23;2.03;;;;;;;21.35;49.19;101506.97;16108965;19;130806;-52
2023/09/28 21:58:56;;;;;;;5.22;1.58;;;;;;;21.33;49.59;101503.63;16117605;19;130429;-52
2023/09/28 22:04:19;;;;;;;3.88;1.50;;;;;;;21.31;49.41;101513.28;16124710;19;130355;-51
2023/09/28 22:09:41;;;;;;;3.67;1.35;;;;;;;21.30;49.04;101518.03;16125043;19;129930;-52
2023/09/28 22:15:03;;;;;;;4.82;1.88;;;;;;;21.28;49.36;101511.03;16125375;19;130003;-54
2023/09/28 22:20:26;;;;;;;4.75;1.55;;;;;;;21.27;49.52;101503.78;16124163;19;130183;-52
2023/09/28 22:25:51;;;;;;;6.57;1.55;;;;;;;21.26;49.28;101510.44;16124305;19;131213;-54
2023/09/28 22:31:13;;;;;;;3.85;1.65;;;;;;;21.22;49.19;101499.78;16121290;19;131085;-54
2023/09/28 22:36:35;;;;;;;8.68;1.95;;;;;;;21.22;49.20;101493.41;16122172;19;131681;-50
2023/09/28 22:41:57;;;;;;;6.75;1.60;;;;;;;21.21;49.04;101495.31;16121835;19;130550;-55
2023/09/28 22:47:19;;;;;;;5.25;1.85;;;;;;;21.19;49.50;101491.13;16118755;19;130262;-55
2023/09/28 22:52:41;;;;;;;3.80;1.60;;;;;;;21.19;49.28;101496.69;16119050;19;129623;-52
2023/09/28 22:58:03;;;;;;;3.47;1.35;;;;;;;21.18;49.17;101503.34;16119936;19;129543;-52
2023/09/28 23:03:26;;;;;;;5.13;1.80;;;;;;;21.17;49.25;101502.47;16118767;19;129702;-52
2023/09/28 23:08:48;;;;;;;4.38;1.50;;;;;;;21.16;49.15;101502.72;16119254;19;129924;-53
2023/09/28 23:14:12;;;;;;;5.32;1.80;;;;;;;21.15;49.29;101499.13;16119836;19;130455;-53
2023/09/28 23:19:34;;;;;;;2.95;1.13;;;;;;;21.14;49.29;101491.00;16118391;19;130782;-53
2023/09/28 23:24:56;;;;;;;3.70;1.50;;;;;;;21.12;49.27;101499.63;16118678;19;129823;-52
2023/09/28 23:30:19;;;;;;;3.40;1.23;;;;;;;21.12;49.32;101487.63;16120476;19;129820;-56
2023/09/28 23:35:41;;;;;;;3.75;1.77;;;;;;;21.11;49.32;101485.97;16125317;19;129445;-50
2023/09/28 23:41:06;;;;;;;3.05;1.33;;;;;;;21.09;49.61;101488.97;16128725;19;130116;-54
2023/09/28 23:46:28;;;;;;;2.93;1.27;;;;;;;21.09;49.34;101485.38;16128620;19;129766;-49
2023/09/28 23:51:50;;;;;;;4.30;1.30;;;;;;;21.07;49.48;101482.81;16126764;19;131249;-51
2023/09/28 23:57:12;;;;;;;3.00;1.30;;;;;;;21.07;49.40;101482.81;16129088;19;131083;-52
